Time;durP1;ratioP1;P1;durP2;ratioP2;P2;SDS_P1;SDS_P2;PMS_P1;PMS_P2;Temp;Humidity;BMP_temperature;BMP_pressure;BME280_temperature;BME280_humidity;BME280_pressure;Samples;Min_cycle;Max_cycle;Signal;HPM_P1;HPM_P2
2021/07/14 00:00:34;;;;;;;17.58;15.55;;;21.60;99.90;;;;;;4954204;28;20034;-87
2021/07/14 00:03:01;;;;;;;16.42;14.88;;;21.60;99.90;;;;;;4964204;28;20695;-86
2021/07/14 00:05:28;;;;;;;18.08;14.13;;;21.60;99.90;;;;;;4966381;28;20234;-86
2021/07/14 00:07:55;;;;;;;16.05;14.30;;;21.60;99.90;;;;;;4964387;28;20043;-86
2021/07/14 00:10:29;;;;;;;17.05;15.55;;;21.60;99.90;;;;;;4968147;28;20085;-86
2021/07/14 00:13:47;;;;;;;15.15;13.82;;;21.60;99.90;;;;;;4968488;28;20385;-86
2021/07/14 00:24:04;;;;;;;17.65;15.55;;;21.50;99.90;;;;;;4948997;28;20496;-86
2021/07/14 00:26:32;;;;;;;17.10;15.60;;;21.50;99.90;;;;;;4966732;28;20046;-86
2021/07/14 00:29:01;;;;;;;18.77;14.88;;;21.50;99.90;;;;;;4944758;28;20047;-86
2021/07/14 00:31:28;;;;;;;15.88;14.48;;;21.40;99.90;;;;;;4966019;28;20050;-86
2021/07/14 00:33:55;;;;;;;15.50;14.00;;;21.40;99.90;;;;;;4944339;28;20145;-86
2021/07/14 00:36:22;;;;;;;15.50;13.90;;;21.40;99.90;;;;;;4967522;28;20050;-86
2021/07/14 00:38:49;;;;;;;18.13;16.25;;;21.40;99.90;;;;;;4965955;28;20584;-86
2021/07/14 00:41:16;;;;;;;15.40;14.10;;;21.40;99.90;;;;;;4967321;28;20039;-86
2021/07/14 00:43:43;;;;;;;17.13;15.63;;;21.30;99.90;;;;;;4951483;28;20066;-86
2021/07/14 00:46:25;;;;;;;17.50;15.93;;;21.30;99.90;;;;;;4964079;28;20536;-86
2021/07/14 00:48:55;;;;;;;16.83;15.32;;;21.30;99.90;;;;;;4961865;28;20058;-86
2021/07/14 00:51:22;;;;;;;16.50;15.00;;;21.30;99.90;;;;;;4962245;28;20066;-86
2021/07/14 00:53:50;;;;;;;16.40;14.82;;;21.30;99.90;;;;;;4949907;28;20137;-86
2021/07/14 00:56:18;;;;;;;15.80;14.38;;;21.30;99.90;;;;;;4965198;28;20054;-86
2021/07/14 00:58:45;;;;;;;15.68;14.15;;;21.20;99.90;;;;;;4951559;28;20054;-87
2021/07/14 01:01:12;;;;;;;16.65;15.10;;;21.20;99.90;;;;;;4948778;28;20442;-86
2021/07/14 01:03:55;;;;;;;15.32;13.85;;;21.20;99.90;;;;;;4965177;28;20467;-86
2021/07/14 01:06:28;;;;;;;14.27;13.07;;;21.20;99.90;;;;;;4946906;28;20735;-87
2021/07/14 01:09:02;;;;;;;17.33;15.73;;;21.20;99.90;;;;;;4962578;28;20492;-90
2021/07/14 01:11:33;;;;;;;16.15;13.43;;;21.20;99.90;;;;;;4964883;28;20047;-84
2021/07/14 01:14:21;;;;;;;14.35;13.02;;;21.20;99.90;;;;;;4979789;28;20493;-89
2021/07/14 01:17:12;;;;;;;14.07;12.68;;;21.10;99.90;;;;;;4968538;28;20081;-84
2021/07/14 01:20:00;;;;;;;13.65;12.45;;;21.10;99.90;;;;;;4955575;28;20141;-84
2021/07/14 01:22:42;;;;;;;14.82;13.50;;;21.10;99.90;;;;;;4957497;28;20456;-84
2021/07/14 01:25:24;;;;;;;14.13;12.70;;;21.10;99.90;;;;;;4965761;28;20108;-84
2021/07/14 01:27:52;;;;;;;14.18;12.85;;;21.10;99.90;;;;;;4964265;28;20046;-85
2021/07/14 01:30:19;;;;;;;14.98;13.27;;;21.00;99.90;;;;;;4930892;28;20105;-84
2021/07/14 01:32:50;;;;;;;13.35;12.18;;;21.00;99.90;;;;;;4964938;28;20039;-85
2021/07/14 01:35:22;;;;;;;13.33;11.93;;;21.00;99.90;;;;;;4948712;28;20066;-84
2021/07/14 01:37:50;;;;;;;12.95;11.85;;;21.00;99.90;;;;;;4965543;28;20050;-85
2021/07/14 01:40:21;;;;;;;12.18;11.05;;;21.00;99.90;;;;;;4964362;28;20137;-85
2021/07/14 01:42:52;;;;;;;13.55;12.30;;;21.00;99.90;;;;;;4961252;28;20047;-85
2021/07/14 01:45:19;;;;;;;14.43;13.23;;;20.90;99.90;;;;;;4964314;28;20393;-84
2021/07/14 01:47:49;;;;;;;13.32;12.15;;;21.00;99.90;;;;;;4967026;28;20113;-84
2021/07/14 01:50:17;;;;;;;14.68;13.23;;;20.90;99.90;;;;;;4959739;28;20138;-84
2021/07/14 01:52:45;;;;;;;13.48;12.18;;;20.90;99.90;;;;;;4963251;28;20047;-84
2021/07/14 01:55:13;;;;;;;12.77;11.60;;;20.90;99.90;;;;;;4946462;28;20126;-87
2021/07/14 01:57:41;;;;;;;14.73;13.18;;;20.90;99.90;;;;;;4963465;28;20109;-86
2021/07/14 02:00:09;;;;;;;13.00;11.45;;;20.90;99.90;;;;;;4948976;28;20058;-87
2021/07/14 02:02:51;;;;;;;13.52;12.32;;;20.90;99.90;;;;;;4962023;28;20396;-87
2021/07/14 02:05:19;;;;;;;14.15;12.85;;;20.90;99.90;;;;;;4964695;28;20047;-87
2021/07/14 02:07:46;;;;;;;13.95;12.52;;;20.80;99.90;;;;;;4964390;28;20114;-87
2021/07/14 02:10:13;;;;;;;13.48;12.27;;;20.80;99.90;;;;;;4964006;28;20113;-87
2021/07/14 02:12:46;;;;;;;14.00;11.43;;;20.80;99.90;;;;;;4965540;28;20042;-87
2021/07/14 02:15:13;;;;;;;14.48;13.15;;;20.80;99.90;;;;;;4964093;28;20050;-87
2021/07/14 02:18:02;;;;;;;12.40;11.30;;;20.80;99.90;;;;;;4961890;28;20051;-86
2021/07/14 02:20:29;;;;;;;12.38;11.27;;;20.80;99.90;;;;;;4979329;28;20055;-87
2021/07/14 02:22:56;;;;;;;13.93;12.60;;;20.80;99.90;;;;;;4962029;28;20070;-87
2021/07/14 02:25:24;;;;;;;13.38;12.18;;;20.80;99.90;;;;;;4963984;28;20082;-87
2021/07/14 02:27:51;;;;;;;13.70;12.43;;;20.70;99.90;;;;;;4944740;28;20047;-87
2021/07/14 02:30:20;;;;;;;19.33;14.63;;;20.70;99.90;;;;;;4959852;28;20050;-86
2021/07/14 02:33:03;;;;;;;14.27;13.07;;;20.70;99.90;;;;;;4964615;28;20082;-86
2021/07/14 02:35:33;;;;;;;13.68;12.52;;;20.70;99.90;;;;;;4965439;28;20049;-86
2021/07/14 02:38:39;;;;;;;13.18;11.98;;;20.70;99.90;;;;;;4961902;28;20038;-86
2021/07/14 02:41:16;;;;;;;14.95;13.60;;;20.70;99.90;;;;;;4963713;28;20065;-86
2021/07/14 02:43:57;;;;;;;13.63;12.43;;;20.70;99.90;;;;;;4963591;28;20043;-86
2021/07/14 02:46:26;;;;;;;15.90;13.07;;;20.70;99.90;;;;;;4943706;28;20043;-86
2021/07/14 02:48:59;;;;;;;13.73;12.30;;;20.70;99.90;;;;;;4958196;28;20055;-86
2021/07/14 02:51:29;;;;;;;13.82;12.63;;;20.70;99.90;;;;;;4963199;28;20047;-86
2021/07/14 02:54:01;;;;;;;13.93;12.73;;;20.70;99.90;;;;;;4949228;28;20075;-86
2021/07/14 02:56:30;;;;;;;13.65;12.25;;;20.70;99.90;;;;;;4959990;28;20050;-86
2021/07/14 02:59:07;;;;;;;14.10;12.90;;;20.70;99.90;;;;;;4951962;28;20046;-86
2021/07/14 03:01:39;;;;;;;14.82;13.40;;;20.70;99.90;;;;;;4952107;28;20049;-86
2021/07/14 03:04:09;;;;;;;12.77;11.57;;;20.70;99.90;;;;;;4962350;28;20078;-86
2021/07/14 03:06:38;;;;;;;14.05;12.60;;;20.70;99.90;;;;;;4958235;28;20078;-86
2021/07/14 03:09:07;;;;;;;13.93;12.57;;;20.70;99.90;;;;;;4965877;28;20685;-86
2021/07/14 03:11:37;;;;;;;15.23;13.63;;;20.80;99.90;;;;;;4970518;28;20492;-86
2021/07/14 03:14:05;;;;;;;14.63;13.05;;;20.80;99.90;;;;;;4948054;28;20094;-86
2021/07/14 03:16:33;;;;;;;14.95;13.23;;;20.80;99.90;;;;;;4966470;28;20678;-86
2021/07/14 03:19:03;;;;;;;14.23;12.93;;;20.80;99.90;;;;;;4968613;28;20552;-86
2021/07/14 03:21:32;;;;;;;14.52;13.15;;;20.80;99.90;;;;;;4982119;28;20055;-86
2021/07/14 03:24:01;;;;;;;13.85;12.55;;;20.90;99.90;;;;;;4965153;28;20039;-87
2021/07/14 03:26:28;;;;;;;14.48;13.18;;;20.90;99.90;;;;;;4964931;28;20180;-86
2021/07/14 03:28:55;;;;;;;18.92;13.25;;;20.90;99.90;;;;;;4950627;28;20108;-87
2021/07/14 03:31:24;;;;;;;14.20;12.85;;;20.90;99.90;;;;;;4948917;28;20101;-86
2021/07/14 03:33:51;;;;;;;14.05;11.80;;;20.90;99.90;;;;;;4966246;28;20066;-87
2021/07/14 03:36:19;;;;;;;14.95;13.48;;;21.00;99.90;;;;;;4965632;28;20368;-87
2021/07/14 03:38:46;;;;;;;13.80;12.55;;;21.00;99.90;;;;;;4968202;28;20059;-87
2021/07/14 03:41:14;;;;;;;14.55;13.20;;;21.00;99.90;;;;;;4980246;28;20055;-87
2021/07/14 03:43:42;;;;;;;14.02;12.65;;;21.00;99.90;;;;;;4967879;28;20035;-87
2021/07/14 03:46:10;;;;;;;14.20;13.00;;;21.10;99.90;;;;;;4961910;28;20046;-86
2021/07/14 03:48:38;;;;;;;14.75;13.43;;;21.10;99.90;;;;;;4982319;28;20047;-87
2021/07/14 03:51:07;;;;;;;13.35;12.00;;;21.10;99.90;;;;;;4930758;28;20044;-86
2021/07/14 03:53:35;;;;;;;14.68;13.18;;;21.20;99.90;;;;;;4943247;28;20055;-87
2021/07/14 03:56:02;;;;;;;14.07;12.48;;;21.20;99.90;;;;;;4947969;28;20114;-86
2021/07/14 03:58:30;;;;;;;16.42;13.20;;;21.20;99.90;;;;;;4946952;28;20039;-86
2021/07/14 04:00:57;;;;;;;15.45;13.88;;;21.30;99.90;;;;;;4959753;28;20043;-86
2021/07/14 04:03:26;;;;;;;13.48;12.18;;;21.30;99.90;;;;;;4945195;28;20055;-86
2021/07/14 04:06:02;;;;;;;14.47;13.07;;;21.30;99.90;;;;;;4944128;28;20051;-86
2021/07/14 04:08:48;;;;;;;14.88;13.57;;;21.40;99.90;;;;;;4946793;28;20059;-86
2021/07/14 04:11:16;;;;;;;13.80;12.60;;;21.40;99.90;;;;;;4945243;28;20043;-86
2021/07/14 04:13:43;;;;;;;13.85;12.73;;;21.50;99.90;;;;;;4944843;28;20039;-86
2021/07/14 04:16:10;;;;;;;13.75;12.45;;;21.50;99.90;;;;;;4946539;28;20040;-86
2021/07/14 04:18:37;;;;;;;14.60;13.20;;;21.60;99.90;;;;;;4961083;28;20046;-86
2021/07/14 04:21:04;;;;;;;14.25;12.95;;;21.60;99.90;;;;;;4947897;28;20435;-86
2021/07/14 04:23:31;;;;;;;13.60;12.40;;;21.60;99.90;;;;;;4946945;28;20062;-86
2021/07/14 04:25:58;;;;;;;14.45;13.05;;;21.70;99.90;;;;;;4946303;28;20055;-87
2021/07/14 04:28:25;;;;;;;14.30;12.80;;;21.70;99.90;;;;;;4947062;28;20048;-86
2021/07/14 04:30:52;;;;;;;15.10;13.70;;;21.80;99.90;;;;;;4947277;28;20398;-86
2021/07/14 04:33:19;;;;;;;13.30;12.18;;;21.80;99.90;;;;;;4945845;28;20997;-86
2021/07/14 04:35:47;;;;;;;13.90;12.68;;;21.90;99.90;;;;;;4948101;28;20040;-86
2021/07/14 04:38:14;;;;;;;18.27;13.95;;;22.00;99.90;;;;;;4941916;28;20071;-86
2021/07/14 04:40:41;;;;;;;14.02;12.55;;;22.10;99.90;;;;;;4947565;28;20051;-86
2021/07/14 04:43:12;;;;;;;15.45;13.98;;;22.20;99.90;;;;;;4973575;28;20063;-86
2021/07/14 04:45:39;;;;;;;13.07;11.77;;;22.20;99.90;;;;;;4948009;28;20217;-87
2021/07/14 04:48:07;;;;;;;17.55;13.52;;;22.20;99.90;;;;;;4958962;28;20066;-87
2021/07/14 04:50:34;;;;;;;16.45;13.75;;;22.30;99.90;;;;;;4963674;28;20059;-86
2021/07/14 04:53:02;;;;;;;15.77;13.70;;;22.40;99.90;;;;;;4946238;28;20054;-87
2021/07/14 04:55:29;;;;;;;16.80;15.18;;;22.40;99.90;;;;;;4946639;28;20110;-86
2021/07/14 04:57:56;;;;;;;16.52;14.65;;;22.50;99.90;;;;;;4945205;28;20085;-86
2021/07/14 05:00:23;;;;;;;14.77;13.32;;;22.60;99.90;;;;;;4944482;28;20050;-87
2021/07/14 05:02:50;;;;;;;15.50;14.05;;;22.70;99.90;;;;;;4941842;28;20055;-87
2021/07/14 05:05:17;;;;;;;15.20;13.63;;;22.70;99.90;;;;;;4945197;28;20107;-86
2021/07/14 05:07:47;;;;;;;15.45;14.15;;;22.80;99.90;;;;;;4959420;28;20047;-86
2021/07/14 05:10:14;;;;;;;15.13;13.70;;;22.90;99.90;;;;;;4959435;28;20075;-86
2021/07/14 05:12:41;;;;;;;14.13;12.82;;;22.90;99.90;;;;;;4947621;28;20039;-86
2021/07/14 05:15:09;;;;;;;13.95;12.75;;;23.00;99.90;;;;;;4945574;28;20059;-86
2021/07/14 05:17:36;;;;;;;16.02;14.63;;;23.10;99.90;;;;;;4946264;28;20047;-86
2021/07/14 05:20:09;;;;;;;17.77;15.70;;;23.20;99.90;;;;;;4943905;28;20519;-86
2021/07/14 05:22:37;;;;;;;17.17;15.50;;;23.30;99.90;;;;;;4945111;28;20051;-86
2021/07/14 05:25:07;;;;;;;14.68;13.00;;;23.40;99.90;;;;;;4944555;28;20114;-86
2021/07/14 05:27:34;;;;;;;15.30;13.95;;;23.40;99.90;;;;;;4961138;28;20047;-86
2021/07/14 05:30:05;;;;;;;15.25;13.82;;;23.50;99.90;;;;;;4944314;28;20062;-86
2021/07/14 05:32:32;;;;;;;17.17;15.57;;;23.60;99.90;;;;;;4944677;28;20553;-86
2021/07/14 05:35:00;;;;;;;15.70;14.32;;;23.60;99.90;;;;;;4942521;28;20184;-86
2021/07/14 05:37:27;;;;;;;15.35;13.85;;;23.70;99.90;;;;;;4960830;28;20054;-86
2021/07/14 05:39:54;;;;;;;14.93;13.32;;;23.80;99.90;;;;;;4944289;28;20129;-86
2021/07/14 05:42:21;;;;;;;15.32;13.52;;;23.90;99.90;;;;;;4960546;28;20062;-86
2021/07/14 05:44:48;;;;;;;13.95;12.73;;;23.90;99.90;;;;;;4959467;28;20055;-85
2021/07/14 05:47:15;;;;;;;13.27;12.23;;;24.00;99.90;;;;;;4946840;28;20377;-86
2021/07/14 05:49:43;;;;;;;16.83;14.18;;;24.10;99.90;;;;;;4944861;28;20106;-86
2021/07/14 05:52:12;;;;;;;15.48;14.18;;;24.20;99.90;;;;;;4957668;28;20047;-87
2021/07/14 05:54:39;;;;;;;11.60;10.60;;;24.30;99.90;;;;;;4946753;28;20039;-87
2021/07/14 05:57:06;;;;;;;14.23;12.90;;;24.30;99.90;;;;;;4944287;28;21554;-87
2021/07/14 05:59:33;;;;;;;12.38;11.30;;;24.30;99.90;;;;;;4945881;28;20046;-86
2021/07/14 06:02:00;;;;;;;11.98;10.98;;;24.40;99.90;;;;;;4956892;28;20059;-86
2021/07/14 06:04:27;;;;;;;12.40;11.15;;;24.50;99.90;;;;;;4946125;28;20119;-87
2021/07/14 06:06:56;;;;;;;15.05;12.30;;;24.50;99.90;;;;;;4943014;28;20118;-87
2021/07/14 06:09:23;;;;;;;12.70;11.60;;;24.60;99.90;;;;;;4960400;28;20708;-86
2021/07/14 06:11:50;;;;;;;15.18;11.73;;;24.60;99.90;;;;;;4945681;28;20039;-86
2021/07/14 06:14:17;;;;;;;14.63;13.32;;;24.70;99.90;;;;;;4945017;28;20070;-87
2021/07/14 06:16:44;;;;;;;12.30;11.13;;;24.80;99.90;;;;;;4942214;28;20910;-87
2021/07/14 06:19:11;;;;;;;11.77;10.88;;;24.80;99.90;;;;;;4943682;28;20549;-87
2021/07/14 06:21:38;;;;;;;12.75;11.48;;;24.90;99.90;;;;;;4960117;28;20050;-87
2021/07/14 06:24:05;;;;;;;12.50;11.50;;;24.90;99.90;;;;;;4941744;28;20051;-87
2021/07/14 06:26:33;;;;;;;13.43;11.50;;;25.00;99.90;;;;;;4943313;28;20055;-87
2021/07/14 06:29:00;;;;;;;12.40;11.15;;;25.00;99.90;;;;;;4948772;28;20102;-87
2021/07/14 06:31:27;;;;;;;11.82;10.80;;;25.10;99.90;;;;;;4930068;28;20081;-86
2021/07/14 06:33:54;;;;;;;13.45;12.27;;;25.10;99.90;;;;;;4946894;28;20055;-86
2021/07/14 06:36:22;;;;;;;12.68;11.45;;;25.10;99.90;;;;;;4964241;28;20047;-87
2021/07/14 06:38:49;;;;;;;12.70;11.65;;;25.10;99.90;;;;;;4945750;28;20047;-87
2021/07/14 06:41:18;;;;;;;11.40;10.50;;;25.30;99.90;;;;;;4964399;28;20059;-87
2021/07/14 06:43:46;;;;;;;11.20;9.93;;;25.30;99.90;;;;;;4948967;28;20039;-87
2021/07/14 06:46:16;;;;;;;11.73;10.68;;;25.30;99.90;;;;;;4948333;28;20293;-87
2021/07/14 06:48:43;;;;;;;12.15;10.93;;;25.30;99.90;;;;;;4962089;28;20043;-86
2021/07/14 06:51:10;;;;;;;12.13;11.07;;;25.40;99.90;;;;;;4965810;28;20405;-87
2021/07/14 06:53:38;;;;;;;10.98;10.10;;;25.40;99.90;;;;;;4947880;28;20062;-87
2021/07/14 06:56:06;;;;;;;10.82;9.93;;;25.50;99.90;;;;;;4940438;28;20035;-87
2021/07/14 06:58:40;;;;;;;12.60;11.40;;;25.50;99.90;;;;;;4961931;28;20048;-87
2021/07/14 07:01:08;;;;;;;10.98;9.88;;;25.50;99.90;;;;;;4964376;28;20063;-87
2021/07/14 07:03:35;;;;;;;10.75;9.82;;;25.70;99.90;;;;;;4963856;28;20047;-87
2021/07/14 07:06:04;;;;;;;10.35;9.43;;;25.70;99.90;;;;;;4948041;28;20481;-87
2021/07/14 07:08:33;;;;;;;12.98;11.77;;;25.80;99.90;;;;;;4948067;28;20452;-86
2021/07/14 07:11:00;;;;;;;10.43;9.63;;;25.80;99.90;;;;;;4948922;28;20043;-87
2021/07/14 07:13:27;;;;;;;12.68;11.32;;;25.80;99.90;;;;;;4947469;28;20146;-87
2021/07/14 07:15:55;;;;;;;12.23;11.13;;;25.80;99.90;;;;;;4948343;28;20102;-86
2021/07/14 07:18:22;;;;;;;11.55;10.60;;;25.90;99.90;;;;;;4947203;28;20050;-86
2021/07/14 07:20:58;;;;;;;11.52;10.57;;;25.90;99.90;;;;;;4946169;28;20058;-86
2021/07/14 07:23:25;;;;;;;11.15;10.02;;;25.90;99.90;;;;;;4966886;28;20127;-86
2021/07/14 07:25:54;;;;;;;12.35;11.07;;;26.00;99.90;;;;;;4957410;28;20048;-87
2021/07/14 07:28:26;;;;;;;14.05;10.88;;;26.10;99.90;;;;;;4947461;28;20039;-87
2021/07/14 07:30:53;;;;;;;10.98;9.98;;;26.10;99.90;;;;;;4974847;28;20370;-87
2021/07/14 07:33:20;;;;;;;14.02;12.07;;;26.20;99.90;;;;;;4959029;28;20106;-86
2021/07/14 07:35:47;;;;;;;10.48;9.57;;;26.20;99.90;;;;;;4947362;28;20095;-87
2021/07/14 07:38:13;;;;;;;13.98;11.82;;;26.30;99.90;;;;;;4946644;28;20055;-87
2021/07/14 07:40:40;;;;;;;12.15;10.95;;;26.30;99.90;;;;;;4947192;28;20481;-87
2021/07/14 07:43:07;;;;;;;11.57;10.52;;;26.40;99.90;;;;;;4948095;28;20073;-86
2021/07/14 07:45:34;;;;;;;11.20;10.20;;;26.40;99.90;;;;;;4962540;28;20544;-86
2021/07/14 07:48:02;;;;;;;12.25;11.15;;;26.50;99.90;;;;;;4959816;28;20059;-87
2021/07/14 07:50:29;;;;;;;10.88;9.77;;;26.50;99.90;;;;;;4964428;28;20055;-87
2021/07/14 07:52:56;;;;;;;11.02;9.93;;;26.50;99.90;;;;;;4961944;28;20043;-87
2021/07/14 07:55:23;;;;;;;10.00;9.10;;;26.60;99.90;;;;;;4947584;28;20481;-86
2021/07/14 07:57:50;;;;;;;11.68;10.73;;;26.60;99.90;;;;;;4943573;28;20051;-87
2021/07/14 08:00:21;;;;;;;11.02;9.93;;;26.70;99.90;;;;;;4962425;28;20062;-88
2021/07/14 08:02:48;;;;;;;9.98;8.98;;;26.70;99.90;;;;;;4977440;28;20085;-86
2021/07/14 08:05:16;;;;;;;11.85;10.43;;;26.80;99.90;;;;;;4960907;28;20436;-87
2021/07/14 08:07:43;;;;;;;10.25;9.35;;;26.90;99.90;;;;;;4947013;28;20078;-86
2021/07/14 08:10:11;;;;;;;11.13;10.23;;;26.90;99.90;;;;;;4946597;28;20081;-86
2021/07/14 08:12:39;;;;;;;10.38;9.43;;;26.90;99.90;;;;;;4961786;28;20050;-86
2021/07/14 08:15:07;;;;;;;13.93;10.93;;;27.00;99.90;;;;;;4946702;28;20083;-86
2021/07/14 08:17:34;;;;;;;9.90;9.00;;;27.10;99.90;;;;;;4948020;28;20065;-87
2021/07/14 08:20:03;;;;;;;11.63;10.38;;;27.10;99.90;;;;;;4943684;28;20067;-87
2021/07/14 08:22:30;;;;;;;10.82;9.82;;;27.20;99.90;;;;;;4960982;28;20054;-87
2021/07/14 08:24:57;;;;;;;12.25;11.25;;;27.30;99.90;;;;;;4961199;28;20405;-86
2021/07/14 08:27:24;;;;;;;11.05;10.15;;;27.30;99.90;;;;;;4946602;28;20054;-86
2021/07/14 08:29:54;;;;;;;11.52;10.32;;;27.40;99.90;;;;;;4944465;28;20051;-86
2021/07/14 08:32:21;;;;;;;12.82;11.55;;;27.40;99.90;;;;;;4946507;28;20047;-87
2021/07/14 08:34:47;;;;;;;11.93;10.88;;;27.40;99.90;;;;;;4946124;28;20504;-87
2021/07/14 08:37:14;;;;;;;11.88;10.88;;;27.50;99.90;;;;;;4958267;28;20060;-87
2021/07/14 08:39:41;;;;;;;11.68;10.50;;;27.50;99.90;;;;;;4940882;28;20035;-88
2021/07/14 08:42:10;;;;;;;10.65;9.68;;;27.70;99.90;;;;;;4942279;28;20047;-87
2021/07/14 08:44:37;;;;;;;12.07;10.82;;;27.70;99.90;;;;;;4945480;28;20477;-87
2021/07/14 08:47:07;;;;;;;10.95;10.05;;;27.70;99.90;;;;;;4961264;28;20445;-88
2021/07/14 08:49:38;;;;;;;12.50;11.35;;;27.80;99.90;;;;;;4943173;28;20078;-87
2021/07/14 08:52:05;;;;;;;11.43;10.32;;;27.80;99.90;;;;;;4961905;28;20055;-86
2021/07/14 08:54:32;;;;;;;11.18;10.15;;;27.90;99.90;;;;;;4962504;28;20054;-86
2021/07/14 08:56:59;;;;;;;12.07;10.23;;;28.00;99.90;;;;;;4957928;28;20496;-86
2021/07/14 08:59:26;;;;;;;10.88;9.88;;;28.00;99.90;;;;;;4962497;28;20408;-87
2021/07/14 09:01:53;;;;;;;12.65;11.45;;;28.00;99.90;;;;;;4977513;28;20061;-88
2021/07/14 09:04:20;;;;;;;10.82;9.77;;;28.10;99.90;;;;;;4967672;28;20062;-87
2021/07/14 09:06:48;;;;;;;12.23;10.93;;;28.20;99.90;;;;;;4961485;28;20065;-87
2021/07/14 09:09:18;;;;;;;12.10;11.10;;;28.20;99.90;;;;;;4956003;28;20134;-87
2021/07/14 09:11:54;;;;;;;12.13;10.05;;;28.30;99.90;;;;;;4978528;28;20051;-86
2021/07/14 09:14:31;;;;;;;22.38;10.52;;;28.30;99.90;;;;;;4978803;28;20039;-87
2021/07/14 09:17:00;;;;;;;12.25;10.65;;;28.40;99.90;;;;;;4963394;28;20070;-87
2021/07/14 09:19:30;;;;;;;10.90;9.93;;;28.50;99.90;;;;;;4963925;28;20134;-86
2021/07/14 09:21:59;;;;;;;10.57;9.68;;;28.60;99.90;;;;;;4978531;28;20892;-86
2021/07/14 09:24:27;;;;;;;11.13;10.05;;;28.60;99.90;;;;;;4962816;28;20059;-87
2021/07/14 09:26:56;;;;;;;11.30;10.40;;;28.80;99.90;;;;;;4965020;28;20053;-87
2021/07/14 09:29:25;;;;;;;11.55;10.43;;;28.80;99.90;;;;;;4963324;28;20075;-87
2021/07/14 09:31:52;;;;;;;10.50;9.57;;;28.90;99.90;;;;;;4962071;28;20058;-87
2021/07/14 09:34:32;;;;;;;10.40;9.55;;;29.00;99.90;;;;;;4964545;28;20078;-86
2021/07/14 09:37:02;;;;;;;;;;;29.10;99.90;;;;;;4980403;28;20061;-87
2021/07/14 09:39:37;;;;;;;9.93;9.13;;;29.10;99.90;;;;;;4962633;28;19926;-86
2021/07/14 09:42:10;;;;;;;10.88;9.82;;;29.20;99.90;;;;;;4965859;28;20445;-87
2021/07/14 09:44:48;;;;;;;8.52;7.78;;;29.30;99.90;;;;;;4963883;28;20050;-87
2021/07/14 09:47:19;;;;;;;10.68;9.68;;;29.40;99.90;;;;;;4961081;28;20363;-86
2021/07/14 09:49:48;;;;;;;10.75;9.85;;;29.40;99.90;;;;;;4966978;28;20709;-86
2021/07/14 09:52:21;;;;;;;10.15;9.07;;;29.40;99.90;;;;;;4976098;28;20926;-86
2021/07/14 09:54:48;;;;;;;9.63;8.70;;;29.40;99.90;;;;;;4954745;28;20088;-87
2021/07/14 09:57:17;;;;;;;9.07;8.38;;;29.40;99.90;;;;;;4963318;28;20113;-87
2021/07/14 09:59:46;;;;;;;9.00;8.23;;;29.50;99.90;;;;;;4962664;28;20051;-86
2021/07/14 10:02:15;;;;;;;9.98;9.18;;;29.60;99.90;;;;;;4964433;28;20050;-86
2021/07/14 10:04:44;;;;;;;10.90;9.90;;;29.70;99.90;;;;;;4962010;28;20054;-86
2021/07/14 10:07:18;;;;;;;9.82;9.00;;;29.80;99.90;;;;;;4981208;28;20619;-86
2021/07/14 10:09:47;;;;;;;9.63;8.93;;;29.90;99.90;;;;;;4964390;28;20062;-87
2021/07/14 10:12:30;;;;;;;8.98;8.07;;;30.00;99.90;;;;;;4949973;28;20051;-87
2021/07/14 10:15:16;;;;;;;8.68;7.97;;;30.10;99.90;;;;;;4976922;28;20144;-86
2021/07/14 10:17:44;;;;;;;9.10;8.25;;;30.20;99.90;;;;;;4965430;28;20633;-87
2021/07/14 10:20:20;;;;;;;8.65;8.05;;;30.20;99.90;;;;;;4963759;28;20044;-87
2021/07/14 10:22:55;;;;;;;10.48;9.38;;;30.40;99.90;;;;;;4969628;28;20117;-86
2021/07/14 10:25:24;;;;;;;8.23;7.63;;;30.30;99.90;;;;;;4974865;28;20061;-86
2021/07/14 10:27:52;;;;;;;8.70;7.72;;;30.30;99.90;;;;;;4950803;28;20154;-86
2021/07/14 10:30:21;;;;;;;6.82;6.32;;;30.30;99.90;;;;;;4965430;28;20047;-86
2021/07/14 10:32:48;;;;;;;8.15;7.13;;;30.30;99.90;;;;;;4966689;28;20054;-87
2021/07/14 10:35:21;;;;;;;7.63;7.10;;;30.40;99.90;;;;;;4961575;28;20058;-86
2021/07/14 10:38:20;;;;;;;8.70;7.82;;;30.40;99.90;;;;;;4961409;28;20047;-86
2021/07/14 10:40:50;;;;;;;6.47;5.97;;;30.50;99.90;;;;;;4964226;28;20066;-86
2021/07/14 10:43:23;;;;;;;8.13;7.43;;;30.60;99.90;;;;;;4961445;28;20061;-86
2021/07/14 10:46:00;;;;;;;8.90;8.30;;;30.70;99.90;;;;;;4979523;28;20055;-85
2021/07/14 10:48:27;;;;;;;7.47;6.78;;;30.70;99.90;;;;;;4959370;28;20106;-86
2021/07/14 10:50:55;;;;;;;8.02;7.22;;;30.80;99.90;;;;;;4966283;28;20047;-85
2021/07/14 10:53:24;;;;;;;7.55;7.05;;;30.80;99.90;;;;;;4958009;28;20077;-86
2021/07/14 10:55:53;;;;;;;7.82;7.22;;;30.80;99.90;;;;;;4941144;28;20054;-86
2021/07/14 10:58:23;;;;;;;7.78;7.20;;;30.90;99.90;;;;;;4960839;28;20047;-86
2021/07/14 11:00:51;;;;;;;9.38;8.55;;;30.90;99.90;;;;;;4953539;28;20062;-85
2021/07/14 11:03:33;;;;;;;9.77;8.43;;;31.10;99.90;;;;;;4960208;28;20080;-85
2021/07/14 11:06:01;;;;;;;8.60;7.90;;;31.10;99.90;;;;;;4961998;28;20038;-85
2021/07/14 11:08:39;;;;;;;8.68;7.78;;;31.20;99.90;;;;;;4978332;28;20869;-86
2021/07/14 11:11:12;;;;;;;9.15;8.30;;;31.30;99.90;;;;;;4963094;28;20133;-86
2021/07/14 11:13:41;;;;;;;7.60;7.00;;;31.40;99.90;;;;;;4955493;28;20043;-85
2021/07/14 11:16:28;;;;;;;7.25;6.53;;;31.40;99.90;;;;;;4966429;28;20416;-85
2021/07/14 11:19:10;;;;;;;6.75;6.20;;;31.50;99.90;;;;;;4981931;28;20432;-85
2021/07/14 11:22:03;;;;;;;6.63;6.13;;;31.50;99.90;;;;;;4964726;28;20506;-86
2021/07/14 11:24:46;;;;;;;7.78;5.45;;;31.50;99.90;;;;;;4984150;28;20043;-85
2021/07/14 11:27:25;;;;;;;6.18;5.43;;;31.60;99.50;;;;;;4943827;28;20046;-85
2021/07/14 11:30:04;;;;;;;6.50;6.05;;;31.60;99.90;;;;;;4964358;28;20061;-86
2021/07/14 11:32:34;;;;;;;9.15;5.95;;;31.70;99.90;;;;;;4981637;28;20686;-85
2021/07/14 11:35:40;;;;;;;5.90;5.35;;;31.70;98.80;;;;;;4979951;28;20794;-86
2021/07/14 11:38:19;;;;;;;6.47;5.97;;;31.60;99.90;;;;;;4885165;29;20056;-85
2021/07/14 11:40:52;;;;;;;6.07;5.50;;;31.70;99.90;;;;;;4956704;28;20047;-85
2021/07/14 11:43:23;;;;;;;6.57;5.88;;;31.80;98.50;;;;;;4960690;28;20097;-85
2021/07/14 11:45:56;;;;;;;6.80;6.30;;;31.90;99.90;;;;;;4986083;28;20042;-85
2021/07/14 11:48:26;;;;;;;6.55;6.05;;;31.90;99.20;;;;;;4964777;28;20046;-85
2021/07/14 11:51:02;;;;;;;6.43;5.82;;;32.10;99.90;;;;;;4983454;28;20507;-85
2021/07/14 11:53:31;;;;;;;6.20;5.70;;;32.10;99.80;;;;;;4945912;28;20050;-85
2021/07/14 11:56:35;;;;;;;8.13;7.50;;;32.20;99.20;;;;;;4967206;28;20058;-85
2021/07/14 11:59:09;;;;;;;7.80;7.10;;;32.20;99.30;;;;;;4904404;29;20734;-85
2021/07/14 12:01:36;;;;;;;6.22;5.82;;;32.30;98.20;;;;;;4957431;28;20046;-85
2021/07/14 12:04:06;;;;;;;7.43;6.72;;;32.20;97.00;;;;;;4966162;28;20053;-85
2021/07/14 12:06:44;;;;;;;7.68;6.85;;;32.10;98.40;;;;;;4979973;28;20055;-85
2021/07/14 12:09:14;;;;;;;7.55;6.85;;;32.20;99.30;;;;;;4962924;28;20054;-85
2021/07/14 12:11:49;;;;;;;8.18;7.47;;;32.20;98.30;;;;;;4961874;28;20408;-85
2021/07/14 12:14:18;;;;;;;11.25;7.55;;;32.20;98.70;;;;;;4965542;28;20043;-85
2021/07/14 12:16:52;;;;;;;7.57;6.95;;;32.30;98.30;;;;;;4964699;28;20158;-86
2021/07/14 12:19:25;;;;;;;7.97;7.38;;;32.20;98.70;;;;;;4963240;28;20046;-86
2021/07/14 12:21:52;;;;;;;7.30;6.70;;;32.30;98.20;;;;;;4965990;28;20485;-85
2021/07/14 12:24:40;;;;;;;7.80;7.20;;;32.30;99.00;;;;;;4947130;28;20501;-85
2021/07/14 12:27:27;;;;;;;6.70;6.18;;;32.30;97.90;;;;;;4979894;28;20051;-85
2021/07/14 12:29:59;;;;;;;6.72;5.97;;;32.30;97.50;;;;;;4939256;28;20039;-85
2021/07/14 12:32:35;;;;;;;6.68;6.18;;;32.30;98.30;;;;;;4980641;28;20050;-85
2021/07/14 12:35:10;;;;;;;8.20;6.57;;;32.30;98.00;;;;;;4964984;28;20051;-85
2021/07/14 12:37:55;;;;;;;7.13;6.63;;;32.40;99.90;;;;;;4963520;28;20081;-85
2021/07/14 12:40:28;;;;;;;7.57;6.75;;;32.40;98.80;;;;;;4966638;28;20202;-85
2021/07/14 12:43:04;;;;;;;7.10;6.47;;;32.50;98.90;;;;;;4964916;28;20105;-85
2021/07/14 12:45:33;;;;;;;8.57;7.88;;;32.50;97.50;;;;;;4962855;28;20129;-85
2021/07/14 12:48:12;;;;;;;6.95;6.45;;;32.60;97.90;;;;;;4963728;28;20050;-86
2021/07/14 12:50:44;;;;;;;7.53;6.82;;;32.50;97.70;;;;;;4947862;28;20165;-83
2021/07/14 12:53:11;;;;;;;8.25;7.57;;;32.70;98.20;;;;;;4975877;28;20527;-83
2021/07/14 12:55:39;;;;;;;7.57;6.97;;;32.90;97.60;;;;;;4965905;28;20054;-83
2021/07/14 12:58:09;;;;;;;7.68;7.00;;;32.80;97.00;;;;;;4964184;28;20081;-83